createdAt,value
2023-04-28T00:00:11.908Z,19.00
2023-04-28T00:02:43.031Z,18.90
2023-04-28T00:05:14.300Z,18.80
2023-04-28T00:07:45.403Z,19.10
2023-04-28T00:10:16.359Z,18.80
2023-04-28T00:12:47.266Z,18.80
2023-04-28T00:15:18.219Z,18.70
2023-04-28T00:17:49.234Z,18.80
2023-04-28T00:20:20.168Z,18.70
2023-04-28T00:22:51.055Z,18.80
2023-04-28T00:25:22.005Z,18.80
2023-04-28T00:27:52.874Z,19.00
2023-04-28T00:30:25.288Z,19.00
2023-04-28T00:32:56.554Z,19.10
2023-04-28T00:35:27.545Z,19.00
2023-04-28T00:37:58.423Z,19.10
2023-04-28T00:40:37.666Z,19.10
2023-04-28T00:43:08.601Z,19.10
2023-04-28T00:45:39.536Z,19.00
2023-04-28T00:48:10.951Z,18.90
2023-04-28T00:50:44.222Z,19.00
2023-04-28T00:53:15.342Z,18.70
2023-04-28T00:55:48.229Z,18.90
2023-04-28T00:58:19.838Z,19.00
2023-04-28T01:00:50.830Z,19.00
2023-04-28T01:03:21.936Z,19.00
2023-04-28T01:05:53.085Z,18.90
2023-04-28T01:08:35.910Z,18.80
2023-04-28T01:11:07.265Z,18.60
2023-04-28T01:13:38.107Z,18.70
2023-04-28T01:16:09.146Z,18.80
2023-04-28T01:18:47.436Z,18.90
2023-04-28T01:21:32.690Z,19.00
2023-04-28T01:24:06.808Z,19.00
2023-04-28T01:26:37.707Z,18.90
2023-04-28T01:29:08.575Z,18.90
2023-04-28T01:31:39.549Z,19.10
2023-04-28T01:34:10.493Z,19.20
2023-04-28T01:36:41.379Z,19.20
2023-04-28T01:39:12.281Z,19.20
2023-04-28T01:41:43.256Z,19.30
2023-04-28T01:44:14.640Z,19.40
2023-04-28T01:46:45.925Z,19.20
2023-04-28T01:49:16.783Z,19.30
2023-04-28T01:51:47.677Z,19.40
2023-04-28T01:54:18.860Z,19.40
2023-04-28T01:56:49.889Z,19.40
2023-04-28T01:59:20.856Z,19.30
2023-04-28T02:01:51.767Z,19.30
2023-04-28T02:04:22.803Z,19.40
2023-04-28T02:06:53.737Z,19.50
2023-04-28T02:09:24.732Z,19.50
2023-04-28T02:11:55.694Z,19.40
2023-04-28T02:14:27.198Z,19.40
2023-04-28T02:16:59.560Z,19.60
2023-04-28T02:19:30.698Z,19.60
2023-04-28T02:22:01.567Z,19.50
2023-04-28T02:24:37.130Z,19.60
2023-04-28T02:27:07.981Z,19.70
2023-04-28T02:29:38.890Z,19.60
2023-04-28T02:32:09.787Z,19.60
2023-04-28T02:34:40.797Z,19.50
2023-04-28T02:37:12.794Z,19.50
2023-04-28T02:39:43.936Z,19.60
2023-04-28T02:42:14.804Z,19.70
2023-04-28T02:44:45.789Z,19.60
2023-04-28T02:47:16.780Z,19.50
2023-04-28T02:49:47.735Z,19.20
2023-04-28T02:52:18.712Z,19.30
2023-04-28T02:54:54.275Z,19.30
2023-04-28T02:57:25.330Z,19.30
2023-04-28T02:59:56.313Z,19.40
2023-04-28T03:02:27.229Z,19.30
2023-04-28T03:04:58.280Z,19.40
2023-04-28T03:07:29.170Z,19.40
2023-04-28T03:10:00.079Z,19.30
2023-04-28T03:12:30.990Z,19.40
2023-04-28T03:15:02.147Z,19.40
2023-04-28T03:17:34.803Z,19.40
2023-04-28T03:20:06.733Z,19.30
2023-04-28T03:22:37.704Z,19.50
2023-04-28T03:25:08.991Z,19.40
2023-04-28T03:27:40.001Z,19.40
2023-04-28T03:30:11.601Z,19.40
2023-04-28T03:32:42.580Z,19.40
2023-04-28T03:35:13.809Z,19.40
2023-04-28T03:37:44.718Z,19.20
2023-04-28T03:40:16.176Z,19.40
2023-04-28T03:42:47.041Z,19.20
2023-04-28T03:45:17.959Z,19.10
2023-04-28T03:47:48.825Z,19.00
2023-04-28T03:50:19.969Z,18.90
2023-04-28T03:52:50.968Z,19.00
2023-04-28T03:55:21.966Z,19.00
2023-04-28T03:57:53.297Z,19.10
2023-04-28T04:00:24.218Z,19.00
2023-04-28T04:02:55.349Z,18.90
2023-04-28T04:05:26.617Z,19.00
2023-04-28T04:07:58.100Z,19.00
2023-04-28T04:10:28.974Z,19.10
2023-04-28T04:12:59.861Z,19.10
2023-04-28T04:15:30.954Z,19.20
2023-04-28T04:18:02.009Z,19.00
2023-04-28T04:20:32.969Z,19.10
2023-04-28T04:23:03.815Z,19.30
2023-04-28T04:25:35.090Z,19.40
2023-04-28T04:28:06.590Z,19.20
2023-04-28T04:30:37.481Z,19.30
2023-04-28T04:33:08.905Z,19.50
2023-04-28T04:35:39.845Z,19.60
2023-04-28T04:38:10.819Z,19.30
2023-04-28T04:40:41.790Z,19.40
2023-04-28T04:43:12.676Z,19.50
2023-04-28T04:45:43.590Z,19.20
2023-04-28T04:48:14.636Z,19.60
2023-04-28T04:50:45.669Z,19.50
2023-04-28T04:53:16.690Z,19.30
2023-04-28T04:55:47.678Z,19.40
2023-04-28T04:58:18.666Z,19.50
2023-04-28T05:00:49.628Z,19.30
2023-04-28T05:03:21.024Z,19.30
2023-04-28T05:05:52.064Z,19.30
2023-04-28T05:08:22.987Z,19.40
2023-04-28T05:10:53.907Z,19.50
2023-04-28T05:13:25.033Z,19.60
2023-04-28T05:15:56.096Z,19.60
2023-04-28T05:18:27.002Z,20.10
2023-04-28T05:20:57.894Z,19.80
2023-04-28T05:23:28.808Z,19.80
2023-04-28T05:25:59.784Z,19.70
2023-04-28T05:28:31.675Z,19.90
2023-04-28T05:31:02.652Z,19.80
2023-04-28T05:33:33.679Z,19.80
2023-04-28T05:36:05.167Z,19.90
2023-04-28T05:38:36.454Z,19.90
2023-04-28T05:41:07.779Z,19.70
2023-04-28T05:43:38.645Z,19.50
2023-04-28T05:46:18.295Z,19.40
2023-04-28T05:49:00.000Z,19.30
2023-04-28T05:51:30.983Z,19.30
2023-04-28T05:54:02.037Z,19.40
2023-04-28T05:56:33.574Z,19.30
2023-04-28T05:59:05.113Z,19.50
2023-04-28T06:01:36.047Z,19.50
2023-04-28T06:04:07.161Z,19.30
2023-04-28T06:06:38.355Z,19.20
2023-04-28T06:09:09.958Z,19.20
2023-04-28T06:11:40.834Z,19.30
2023-04-28T06:14:11.720Z,19.20
2023-04-28T06:16:45.385Z,19.30
2023-04-28T06:19:19.073Z,19.10
2023-04-28T06:21:52.845Z,19.10
2023-04-28T06:24:26.162Z,19.20
2023-04-28T06:26:57.745Z,19.20
2023-04-28T06:29:28.772Z,19.20
2023-04-28T06:31:59.633Z,18.80
2023-04-28T06:34:31.578Z,18.70
2023-04-28T06:37:02.518Z,18.80
2023-04-28T06:39:33.411Z,18.70
2023-04-28T06:42:04.450Z,18.80
2023-04-28T06:44:36.423Z,19.30
2023-04-28T06:47:07.811Z,19.10
2023-04-28T06:49:38.829Z,19.20
2023-04-28T06:52:09.811Z,19.30
2023-04-28T06:54:40.837Z,19.10
2023-04-28T06:57:12.019Z,19.10
2023-04-28T06:59:44.344Z,19.20
2023-04-28T07:02:15.300Z,19.20
2023-04-28T07:04:46.252Z,19.10
2023-04-28T07:07:17.295Z,19.30
2023-04-28T07:09:48.172Z,19.30
2023-04-28T07:12:19.467Z,19.00
2023-04-28T07:14:51.032Z,19.10
2023-04-28T07:17:21.973Z,19.10
2023-04-28T07:19:52.896Z,18.90
2023-04-28T07:22:23.825Z,19.20
2023-04-28T07:24:54.750Z,19.30
2023-04-28T07:27:25.728Z,19.20
2023-04-28T07:29:56.586Z,18.90
2023-04-28T07:32:27.466Z,19.00
2023-04-28T07:34:58.402Z,18.90
2023-04-28T07:37:31.149Z,19.10
2023-04-28T07:40:02.179Z,19.20
2023-04-28T07:42:33.128Z,19.40
2023-04-28T07:45:06.136Z,19.30
2023-04-28T07:47:37.678Z,19.30
2023-04-28T07:50:09.350Z,19.40
2023-04-28T07:52:40.251Z,19.30
2023-04-28T07:55:11.147Z,19.40
2023-04-28T07:57:42.557Z,19.40
2023-04-28T08:00:14.265Z,19.40
2023-04-28T08:02:45.276Z,19.50
2023-04-28T08:05:17.286Z,19.50
2023-04-28T08:07:48.470Z,19.50
2023-04-28T08:10:21.101Z,19.70
2023-04-28T08:12:52.396Z,19.80
2023-04-28T08:15:23.298Z,19.60
2023-04-28T08:17:54.302Z,19.60
2023-04-28T08:20:25.724Z,19.60
2023-04-28T08:22:56.665Z,19.50
2023-04-28T08:25:27.665Z,19.60
2023-04-28T08:27:58.754Z,19.40
2023-04-28T08:30:30.109Z,19.10
2023-04-28T08:33:01.015Z,19.20
2023-04-28T08:35:32.136Z,19.30
2023-04-28T08:38:03.038Z,19.40
2023-04-28T08:40:34.134Z,19.50
2023-04-28T08:43:05.052Z,19.40
2023-04-28T08:45:43.109Z,19.60
2023-04-28T08:48:22.685Z,19.70
2023-04-28T08:50:54.917Z,19.70
2023-04-28T08:53:27.066Z,19.60
2023-04-28T08:55:59.237Z,19.90
2023-04-28T08:58:30.285Z,19.80
2023-04-28T09:01:04.716Z,20.00
2023-04-28T09:03:35.701Z,20.20
2023-04-28T09:06:06.685Z,20.40
2023-04-28T09:08:37.574Z,20.10
2023-04-28T09:11:10.811Z,20.60
2023-04-28T09:13:42.782Z,20.20
2023-04-28T09:16:14.042Z,20.30
2023-04-28T09:18:58.088Z,20.20
2023-04-28T09:21:29.241Z,20.40
2023-04-28T09:24:00.121Z,20.60
2023-04-28T09:26:51.229Z,20.60
2023-04-28T09:29:23.225Z,20.60
2023-04-28T09:31:54.997Z,20.50
2023-04-28T09:34:26.718Z,20.40
2023-04-28T09:36:57.668Z,20.50
2023-04-28T09:39:31.202Z,20.50
2023-04-28T09:42:03.757Z,20.30
2023-04-28T09:44:34.658Z,20.40
2023-04-28T09:47:24.866Z,20.60
2023-04-28T09:50:01.171Z,20.70
2023-04-28T09:52:35.034Z,20.70
2023-04-28T09:55:08.866Z,20.90
2023-04-28T09:57:40.836Z,20.80
2023-04-28T10:00:12.231Z,20.90
2023-04-28T10:02:44.284Z,21.10
2023-04-28T10:05:17.358Z,21.10
2023-04-28T10:07:48.533Z,21.30
2023-04-28T10:10:20.046Z,21.50
2023-04-28T10:12:52.090Z,21.70
2023-04-28T10:15:23.866Z,21.80
2023-04-28T10:17:55.656Z,21.90
2023-04-28T10:20:29.566Z,21.90
2023-04-28T10:23:45.465Z,22.30
2023-04-28T10:26:19.849Z,22.40
2023-04-28T10:28:52.225Z,22.70
2023-04-28T10:31:23.481Z,22.60
2023-04-28T10:33:54.745Z,22.10
2023-04-28T10:36:59.438Z,22.80
2023-04-28T10:39:30.675Z,22.80
2023-04-28T10:42:01.989Z,23.20
2023-04-28T10:44:33.211Z,23.50
2023-04-28T10:47:05.114Z,23.20
2023-04-28T10:49:57.733Z,23.60
2023-04-28T10:52:40.768Z,23.60
2023-04-28T10:55:36.634Z,23.20
2023-04-28T10:58:16.854Z,23.50
2023-04-28T11:00:48.376Z,23.40
2023-04-28T11:03:42.473Z,23.30
2023-04-28T11:06:36.594Z,23.30
2023-04-28T11:09:16.125Z,23.30
2023-04-28T11:12:06.909Z,23.50
2023-04-28T11:14:40.923Z,23.70
2023-04-28T11:17:17.271Z,23.50
2023-04-28T11:19:51.397Z,23.00
2023-04-28T11:22:24.025Z,23.30
2023-04-28T11:25:03.166Z,22.50
2023-04-28T11:27:34.666Z,22.40
2023-04-28T11:30:22.385Z,22.70
2023-04-28T11:32:53.495Z,23.10
2023-04-28T11:35:25.048Z,23.60
2023-04-28T11:38:06.709Z,23.60
2023-04-28T11:40:37.648Z,23.80
2023-04-28T11:43:08.970Z,23.90
2023-04-28T11:45:47.273Z,24.00
2023-04-28T11:48:22.445Z,23.70
2023-04-28T11:50:54.001Z,24.10
2023-04-28T11:53:44.430Z,24.30
2023-04-28T11:56:15.515Z,24.40
2023-04-28T11:58:46.448Z,24.40
2023-04-28T12:01:17.435Z,24.10
2023-04-28T12:03:48.762Z,24.50
2023-04-28T12:06:19.961Z,24.40
2023-04-28T12:08:54.314Z,24.40
2023-04-28T12:11:25.907Z,23.60
2023-04-28T12:14:04.508Z,23.10
2023-04-28T12:16:44.505Z,24.30
2023-04-28T12:19:16.148Z,24.20
2023-04-28T12:22:07.525Z,23.80
2023-04-28T12:24:39.075Z,23.40
2023-04-28T12:27:25.165Z,23.00
2023-04-28T12:29:56.493Z,23.50
2023-04-28T12:32:43.627Z,22.90
2023-04-28T12:35:14.641Z,23.30
2023-04-28T12:37:45.601Z,23.80
2023-04-28T12:40:16.500Z,23.80
2023-04-28T12:42:47.543Z,24.10
2023-04-28T12:45:18.653Z,23.70
2023-04-28T12:47:49.668Z,23.40
2023-04-28T12:50:20.751Z,23.30
2023-04-28T12:52:51.629Z,23.00
2023-04-28T12:55:23.030Z,23.10
2023-04-28T12:57:55.466Z,23.20
2023-04-28T13:00:26.540Z,23.00
2023-04-28T13:02:58.731Z,22.80
2023-04-28T13:05:30.016Z,22.90
2023-04-28T13:08:00.913Z,22.90
2023-04-28T13:10:31.910Z,23.10
2023-04-28T13:13:02.804Z,23.30
2023-04-28T13:15:33.808Z,23.20
2023-04-28T13:18:04.747Z,23.30
2023-04-28T13:20:35.949Z,23.30
2023-04-28T13:23:06.936Z,23.40
2023-04-28T13:25:37.838Z,23.30
2023-04-28T13:28:08.713Z,23.00
2023-04-28T13:30:39.590Z,23.10
2023-04-28T13:33:10.532Z,23.20
2023-04-28T13:35:42.437Z,23.20
2023-04-28T13:38:13.498Z,23.50
2023-04-28T13:40:44.431Z,23.80
2023-04-28T13:43:15.300Z,23.60
2023-04-28T13:45:46.564Z,23.50
2023-04-28T13:48:17.561Z,23.50
2023-04-28T13:50:48.536Z,23.30
2023-04-28T13:53:19.442Z,23.20
2023-04-28T13:55:53.905Z,23.30
2023-04-28T13:58:29.147Z,23.20
2023-04-28T14:01:00.335Z,23.20
2023-04-28T14:03:31.465Z,23.10
2023-04-28T14:06:03.136Z,22.90
2023-04-28T14:08:34.053Z,22.80
2023-04-28T14:11:05.144Z,23.00
2023-04-28T14:13:36.503Z,23.10
2023-04-28T14:16:07.947Z,23.10
2023-04-28T14:18:38.832Z,23.20
2023-04-28T14:21:10.032Z,23.70
2023-04-28T14:23:40.870Z,23.10
2023-04-28T14:26:12.241Z,23.40
2023-04-28T14:28:43.241Z,23.70
2023-04-28T14:31:14.192Z,23.50
2023-04-28T14:33:45.138Z,23.10
2023-04-28T14:36:16.265Z,23.30
2023-04-28T14:38:47.378Z,23.50
2023-04-28T14:41:18.274Z,23.80
2023-04-28T14:43:49.281Z,23.10
2023-04-28T14:46:23.003Z,23.60
2023-04-28T14:48:54.360Z,23.60
2023-04-28T14:51:26.115Z,23.40
2023-04-28T14:53:57.412Z,24.00
2023-04-28T14:56:28.498Z,23.80
2023-04-28T14:58:59.344Z,24.00
2023-04-28T15:01:31.146Z,24.20
2023-04-28T15:04:02.211Z,24.20
2023-04-28T15:06:34.122Z,24.00
2023-04-28T15:09:05.438Z,24.40
2023-04-28T15:11:36.554Z,23.90
2023-04-28T15:14:07.510Z,23.70
2023-04-28T15:16:38.421Z,23.90
2023-04-28T15:19:09.456Z,23.70
2023-04-28T15:21:40.942Z,24.10
2023-04-28T15:24:12.208Z,23.80
2023-04-28T15:26:43.137Z,24.20
2023-04-28T15:29:14.149Z,23.70
2023-04-28T15:31:45.395Z,23.90
2023-04-28T15:34:16.380Z,24.10
2023-04-28T15:36:47.302Z,24.10
2023-04-28T15:39:18.214Z,23.80
2023-04-28T15:41:49.105Z,23.90
2023-04-28T15:44:19.976Z,23.20
2023-04-28T15:46:52.531Z,23.00
2023-04-28T15:49:23.384Z,22.10
2023-04-28T15:51:54.286Z,22.50
2023-04-28T15:54:25.148Z,22.90
2023-04-28T15:56:56.161Z,23.20
2023-04-28T15:59:27.187Z,23.10
2023-04-28T16:01:58.109Z,23.30
2023-04-28T16:04:29.158Z,23.20
2023-04-28T16:07:02.553Z,23.50
2023-04-28T16:09:33.582Z,23.60
2023-04-28T16:12:05.172Z,23.50
2023-04-28T16:14:37.448Z,23.10
2023-04-28T16:17:08.579Z,23.30
2023-04-28T16:19:39.564Z,23.40
2023-04-28T16:22:10.520Z,23.50
2023-04-28T16:24:45.224Z,23.20
2023-04-28T16:27:16.265Z,23.20
2023-04-28T16:29:47.142Z,23.40
2023-04-28T16:32:18.247Z,23.20
2023-04-28T16:34:49.387Z,22.30
2023-04-28T16:37:20.639Z,21.80
2023-04-28T16:39:52.023Z,22.00
2023-04-28T16:42:23.227Z,21.70
2023-04-28T16:44:54.119Z,21.40
2023-04-28T16:47:25.206Z,21.50
2023-04-28T16:49:56.566Z,21.80
2023-04-28T16:52:28.015Z,21.90
2023-04-28T16:54:59.005Z,22.10
2023-04-28T16:57:29.931Z,21.70
2023-04-28T17:00:04.278Z,22.20
2023-04-28T17:02:35.265Z,22.60
2023-04-28T17:05:07.338Z,22.30
2023-04-28T17:07:38.529Z,22.60
2023-04-28T17:10:10.617Z,22.70
2023-04-28T17:12:42.778Z,22.90
2023-04-28T17:15:18.082Z,23.10
2023-04-28T17:17:50.834Z,23.40
2023-04-28T17:20:22.446Z,23.20
2023-04-28T17:22:53.401Z,23.30
2023-04-28T17:25:24.421Z,23.40
2023-04-28T17:27:55.302Z,23.80
2023-04-28T17:30:26.379Z,24.10
2023-04-28T17:32:58.854Z,24.10
2023-04-28T17:35:29.918Z,23.90
2023-04-28T17:38:00.794Z,23.90
2023-04-28T17:40:31.899Z,23.90
2023-04-28T17:43:04.050Z,23.80
2023-04-28T17:45:34.960Z,23.70
2023-04-28T17:48:06.230Z,23.70
2023-04-28T17:50:37.205Z,23.80
2023-04-28T17:53:08.081Z,23.70
2023-04-28T17:55:40.496Z,23.50
2023-04-28T17:58:11.519Z,23.20
2023-04-28T18:00:42.662Z,23.30
2023-04-28T18:03:13.689Z,23.00
2023-04-28T18:05:44.673Z,22.90
2023-04-28T18:08:15.549Z,22.80
2023-04-28T18:10:46.457Z,22.70
2023-04-28T18:13:17.325Z,22.60
2023-04-28T18:15:48.291Z,22.70
2023-04-28T18:18:19.709Z,22.60
2023-04-28T18:20:58.169Z,22.40
2023-04-28T18:23:30.544Z,22.40
2023-04-28T18:26:01.663Z,22.50
2023-04-28T18:28:34.275Z,22.60
2023-04-28T18:31:06.266Z,22.30
2023-04-28T18:33:37.135Z,22.40
2023-04-28T18:36:08.074Z,22.40
2023-04-28T18:38:39.041Z,22.30
2023-04-28T18:41:18.052Z,22.00
2023-04-28T18:43:49.037Z,21.90
2023-04-28T18:46:20.318Z,21.80
2023-04-28T18:48:52.346Z,21.80
2023-04-28T18:51:23.285Z,21.70
2023-04-28T18:53:54.161Z,21.40
2023-04-28T18:56:25.141Z,21.40
2023-04-28T18:58:56.150Z,21.30
2023-04-28T19:01:27.450Z,21.30
2023-04-28T19:03:59.228Z,21.20
2023-04-28T19:06:30.687Z,21.20
2023-04-28T19:09:02.260Z,21.10
2023-04-28T19:11:33.292Z,21.00
2023-04-28T19:14:04.156Z,21.00
2023-04-28T19:16:35.085Z,20.90
2023-04-28T19:19:08.242Z,20.90
2023-04-28T19:21:44.672Z,21.10
2023-04-28T19:24:15.570Z,21.10
2023-04-28T19:26:46.699Z,20.90
2023-04-28T19:29:17.645Z,20.80
2023-04-28T19:31:49.049Z,20.80
2023-04-28T19:34:19.928Z,20.70
2023-04-28T19:36:50.822Z,20.90
2023-04-28T19:39:22.080Z,21.00
2023-04-28T19:41:54.556Z,21.10
2023-04-28T19:44:26.362Z,21.10
2023-04-28T19:46:57.325Z,21.40
2023-04-28T19:49:28.217Z,21.00
2023-04-28T19:51:59.876Z,21.20
2023-04-28T19:54:31.118Z,21.20
2023-04-28T19:57:02.139Z,21.20
2023-04-28T19:59:33.815Z,21.10
2023-04-28T20:02:07.893Z,20.80
2023-04-28T20:04:40.040Z,20.70
2023-04-28T20:07:11.540Z,20.70
2023-04-28T20:09:42.428Z,20.60
2023-04-28T20:12:13.961Z,20.60
2023-04-28T20:14:45.393Z,20.50
2023-04-28T20:17:16.712Z,20.40
2023-04-28T20:19:47.884Z,20.50
2023-04-28T20:22:18.834Z,20.30
2023-04-28T20:24:49.946Z,20.30
2023-04-28T20:27:22.934Z,20.30
2023-04-28T20:29:53.851Z,20.30
2023-04-28T20:32:24.821Z,20.20
2023-04-28T20:34:56.310Z,20.10
2023-04-28T20:37:27.296Z,19.90
2023-04-28T20:39:58.265Z,20.10
2023-04-28T20:42:29.529Z,19.90
2023-04-28T20:45:00.449Z,20.00
2023-04-28T20:47:32.047Z,20.10
2023-04-28T20:50:04.278Z,19.90
2023-04-28T20:52:35.527Z,20.00
2023-04-28T20:55:07.859Z,19.90
2023-04-28T20:57:38.718Z,19.90
2023-04-28T21:00:11.447Z,19.90
2023-04-28T21:02:42.724Z,20.00
2023-04-28T21:05:13.814Z,19.70
2023-04-28T21:07:44.926Z,19.80
2023-04-28T21:10:15.909Z,19.80
2023-04-28T21:12:46.779Z,20.30
2023-04-28T21:15:17.688Z,20.60
2023-04-28T21:17:48.590Z,20.90
2023-04-28T21:20:19.605Z,20.80
2023-04-28T21:22:50.485Z,20.70
2023-04-28T21:25:21.392Z,20.70
2023-04-28T21:27:53.319Z,20.80
2023-04-28T21:30:24.239Z,20.80
2023-04-28T21:32:55.611Z,20.70
2023-04-28T21:35:26.686Z,20.90
2023-04-28T21:37:57.620Z,21.00
2023-04-28T21:40:28.978Z,20.90
2023-04-28T21:42:59.828Z,20.80
2023-04-28T21:45:30.764Z,21.00
2023-04-28T21:48:01.849Z,21.00
2023-04-28T21:50:32.757Z,21.10
2023-04-28T21:53:03.913Z,21.00
2023-04-28T21:55:34.859Z,21.00
2023-04-28T21:58:06.455Z,20.90
2023-04-28T22:00:43.332Z,20.80
2023-04-28T22:03:15.524Z,20.80
2023-04-28T22:05:46.896Z,20.70
2023-04-28T22:08:17.792Z,20.80
2023-04-28T22:10:48.819Z,20.80
2023-04-28T22:13:19.697Z,20.70
2023-04-28T22:15:50.994Z,20.60
2023-04-28T22:18:22.069Z,20.60
2023-04-28T22:20:52.938Z,20.60
2023-04-28T22:23:23.861Z,20.70
2023-04-28T22:25:59.210Z,20.80
2023-04-28T22:28:30.198Z,20.60
2023-04-28T22:31:01.133Z,20.80
2023-04-28T22:33:32.917Z,20.80
2023-04-28T22:36:03.983Z,20.80
2023-04-28T22:38:34.972Z,21.00
2023-04-28T22:41:05.874Z,20.80
2023-04-28T22:43:36.741Z,20.90
2023-04-28T22:46:08.068Z,20.80
2023-04-28T22:48:38.977Z,21.10
2023-04-28T22:51:10.111Z,21.00
2023-04-28T22:53:41.470Z,21.00
2023-04-28T22:56:12.410Z,20.90
2023-04-28T22:58:43.353Z,20.90
2023-04-28T23:01:14.249Z,20.90
2023-04-28T23:03:45.309Z,20.90
2023-04-28T23:06:17.195Z,20.60
2023-04-28T23:08:48.063Z,20.90
2023-04-28T23:11:18.941Z,20.90
2023-04-28T23:13:50.067Z,21.10
2023-04-28T23:16:21.145Z,20.60
2023-04-28T23:18:52.045Z,21.00
2023-04-28T23:21:23.570Z,21.10
2023-04-28T23:23:54.781Z,21.10
2023-04-28T23:26:26.243Z,21.10
2023-04-28T23:28:57.576Z,21.10
2023-04-28T23:31:28.765Z,21.00
2023-04-28T23:33:59.758Z,20.90
2023-04-28T23:36:30.678Z,21.10
2023-04-28T23:39:02.183Z,21.00
2023-04-28T23:41:33.090Z,21.00
2023-04-28T23:44:04.125Z,20.80
2023-04-28T23:46:35.285Z,20.90
2023-04-28T23:49:06.225Z,20.70
2023-04-28T23:51:37.140Z,20.90
2023-04-28T23:54:09.252Z,21.00
2023-04-28T23:56:40.128Z,21.00
2023-04-28T23:59:11.011Z,20.90
